sensor_id;sensor_type;location;lat;lon;timestamp;temperature;humidity
10051;DHT22;5065;46.942;7.432;2022-10-16T00:01:35;16.20;99.90
10051;DHT22;5065;46.942;7.432;2022-10-16T00:04:02;16.20;99.90
10051;DHT22;5065;46.942;7.432;2022-10-16T00:06:30;16.20;99.90
10051;DHT22;5065;46.942;7.432;2022-10-16T00:08:58;16.20;99.90
10051;DHT22;5065;46.942;7.432;2022-10-16T00:11:27;16.20;99.90
10051;DHT22;5065;46.942;7.432;2022-10-16T00:13:56;16.30;99.90
10051;DHT22;5065;46.942;7.432;2022-10-16T00:16:24;16.20;99.90
10051;DHT22;5065;46.942;7.432;2022-10-16T00:18:52;16.20;99.90
10051;DHT22;5065;46.942;7.432;2022-10-16T00:21:22;16.20;99.90
10051;DHT22;5065;46.942;7.432;2022-10-16T00:23:51;16.20;99.90
10051;DHT22;5065;46.942;7.432;2022-10-16T00:26:19;16.20;99.90
10051;DHT22;5065;46.942;7.432;2022-10-16T00:28:46;16.20;99.90
10051;DHT22;5065;46.942;7.432;2022-10-16T00:31:15;16.10;99.90
10051;DHT22;5065;46.942;7.432;2022-10-16T00:33:43;16.10;99.90
10051;DHT22;5065;46.942;7.432;2022-10-16T00:36:13;16.10;99.90
10051;DHT22;5065;46.942;7.432;2022-10-16T00:38:40;16.10;99.90
10051;DHT22;5065;46.942;7.432;2022-10-16T00:41:10;16.20;99.90
10051;DHT22;5065;46.942;7.432;2022-10-16T00:43:40;16.10;99.90
10051;DHT22;5065;46.942;7.432;2022-10-16T00:46:15;16.10;99.90
10051;DHT22;5065;46.942;7.432;2022-10-16T00:48:47;16.10;99.90
10051;DHT22;5065;46.942;7.432;2022-10-16T00:51:17;16.10;99.90
10051;DHT22;5065;46.942;7.432;2022-10-16T00:53:46;16.00;99.90
10051;DHT22;5065;46.942;7.432;2022-10-16T00:56:14;16.10;99.90
10051;DHT22;5065;46.942;7.432;2022-10-16T00:58:41;16.10;99.90
10051;DHT22;5065;46.942;7.432;2022-10-16T01:01:09;16.00;99.90
10051;DHT22;5065;46.942;7.432;2022-10-16T01:03:37;16.00;99.90
10051;DHT22;5065;46.942;7.432;2022-10-16T01:06:23;16.10;99.90
10051;DHT22;5065;46.942;7.432;2022-10-16T01:09:07;16.10;99.90
10051;DHT22;5065;46.942;7.432;2022-10-16T01:11:45;16.00;99.90
10051;DHT22;5065;46.942;7.432;2022-10-16T01:14:22;16.00;99.90
10051;DHT22;5065;46.942;7.432;2022-10-16T01:16:57;16.00;99.90
10051;DHT22;5065;46.942;7.432;2022-10-16T01:19:36;16.00;99.90
10051;DHT22;5065;46.942;7.432;2022-10-16T01:22:09;16.00;99.90
10051;DHT22;5065;46.942;7.432;2022-10-16T01:24:40;16.00;99.90
10051;DHT22;5065;46.942;7.432;2022-10-16T01:27:11;16.00;99.90
10051;DHT22;5065;46.942;7.432;2022-10-16T01:29:43;16.00;99.90
10051;DHT22;5065;46.942;7.432;2022-10-16T01:32:16;15.90;99.90
10051;DHT22;5065;46.942;7.432;2022-10-16T01:34:48;15.90;99.90
10051;DHT22;5065;46.942;7.432;2022-10-16T01:37:22;15.90;99.90
10051;DHT22;5065;46.942;7.432;2022-10-16T01:39:55;15.90;99.90
10051;DHT22;5065;46.942;7.432;2022-10-16T01:42:29;15.90;99.90
10051;DHT22;5065;46.942;7.432;2022-10-16T01:44:59;15.80;99.90
10051;DHT22;5065;46.942;7.432;2022-10-16T01:47:30;15.80;99.90
10051;DHT22;5065;46.942;7.432;2022-10-16T01:49:59;15.80;99.90
10051;DHT22;5065;46.942;7.432;2022-10-16T01:52:31;15.70;99.90
10051;DHT22;5065;46.942;7.432;2022-10-16T01:54:59;15.70;99.90
10051;DHT22;5065;46.942;7.432;2022-10-16T01:57:31;15.70;99.90
10051;DHT22;5065;46.942;7.432;2022-10-16T02:00:02;15.70;99.90
10051;DHT22;5065;46.942;7.432;2022-10-16T02:02:30;15.60;99.90
10051;DHT22;5065;46.942;7.432;2022-10-16T02:05:04;15.60;99.90
10051;DHT22;5065;46.942;7.432;2022-10-16T02:07:31;15.60;99.90
10051;DHT22;5065;46.942;7.432;2022-10-16T02:09:59;15.50;99.90
10051;DHT22;5065;46.942;7.432;2022-10-16T02:12:30;15.50;99.90
10051;DHT22;5065;46.942;7.432;2022-10-16T02:14:58;15.50;99.90
10051;DHT22;5065;46.942;7.432;2022-10-16T02:17:25;15.50;99.90
10051;DHT22;5065;46.942;7.432;2022-10-16T02:19:54;15.50;99.90
10051;DHT22;5065;46.942;7.432;2022-10-16T02:22:25;15.50;99.90
10051;DHT22;5065;46.942;7.432;2022-10-16T02:24:57;15.50;99.90
10051;DHT22;5065;46.942;7.432;2022-10-16T02:27:27;15.50;99.90
10051;DHT22;5065;46.942;7.432;2022-10-16T02:30:01;15.50;99.90
10051;DHT22;5065;46.942;7.432;2022-10-16T02:32:34;15.50;99.90
10051;DHT22;5065;46.942;7.432;2022-10-16T02:35:03;15.60;99.90
10051;DHT22;5065;46.942;7.432;2022-10-16T02:37:31;15.50;99.90
10051;DHT22;5065;46.942;7.432;2022-10-16T02:39:59;15.50;99.90
10051;DHT22;5065;46.942;7.432;2022-10-16T02:42:33;15.50;99.90
10051;DHT22;5065;46.942;7.432;2022-10-16T02:45:01;15.50;99.90
10051;DHT22;5065;46.942;7.432;2022-10-16T02:47:29;15.50;99.90
10051;DHT22;5065;46.942;7.432;2022-10-16T02:49:56;15.50;99.90
10051;DHT22;5065;46.942;7.432;2022-10-16T02:52:23;15.50;99.90
10051;DHT22;5065;46.942;7.432;2022-10-16T02:54:50;15.50;99.90
10051;DHT22;5065;46.942;7.432;2022-10-16T02:57:17;15.50;99.90
10051;DHT22;5065;46.942;7.432;2022-10-16T02:59:45;15.50;99.90
10051;DHT22;5065;46.942;7.432;2022-10-16T03:02:13;15.50;99.90
10051;DHT22;5065;46.942;7.432;2022-10-16T03:04:40;15.50;99.90
10051;DHT22;5065;46.942;7.432;2022-10-16T03:07:07;15.50;99.90
10051;DHT22;5065;46.942;7.432;2022-10-16T03:09:34;15.50;99.90
10051;DHT22;5065;46.942;7.432;2022-10-16T03:12:02;15.50;99.90
10051;DHT22;5065;46.942;7.432;2022-10-16T03:14:29;15.50;99.90
10051;DHT22;5065;46.942;7.432;2022-10-16T03:16:56;15.50;99.90
10051;DHT22;5065;46.942;7.432;2022-10-16T03:19:25;15.50;99.90
10051;DHT22;5065;46.942;7.432;2022-10-16T03:21:52;15.50;99.90
10051;DHT22;5065;46.942;7.432;2022-10-16T03:24:19;15.40;99.90
10051;DHT22;5065;46.942;7.432;2022-10-16T03:26:46;15.40;99.90
10051;DHT22;5065;46.942;7.432;2022-10-16T03:29:13;15.40;99.90
10051;DHT22;5065;46.942;7.432;2022-10-16T03:31:40;15.40;99.90
10051;DHT22;5065;46.942;7.432;2022-10-16T03:34:07;15.40;99.90
10051;DHT22;5065;46.942;7.432;2022-10-16T03:36:36;15.40;99.90
10051;DHT22;5065;46.942;7.432;2022-10-16T03:39:03;15.40;99.90
10051;DHT22;5065;46.942;7.432;2022-10-16T03:41:30;15.40;99.90
10051;DHT22;5065;46.942;7.432;2022-10-16T03:43:57;15.40;99.90
10051;DHT22;5065;46.942;7.432;2022-10-16T03:46:25;15.30;99.90
10051;DHT22;5065;46.942;7.432;2022-10-16T03:48:52;15.40;99.90
10051;DHT22;5065;46.942;7.432;2022-10-16T03:51:19;15.40;99.90
10051;DHT22;5065;46.942;7.432;2022-10-16T03:53:47;15.40;99.90
10051;DHT22;5065;46.942;7.432;2022-10-16T03:56:15;15.40;99.90
10051;DHT22;5065;46.942;7.432;2022-10-16T03:58:42;15.30;99.90
10051;DHT22;5065;46.942;7.432;2022-10-16T04:01:09;15.30;99.90
10051;DHT22;5065;46.942;7.432;2022-10-16T04:03:36;15.30;99.90
10051;DHT22;5065;46.942;7.432;2022-10-16T04:06:03;15.40;99.90
10051;DHT22;5065;46.942;7.432;2022-10-16T04:08:31;15.40;99.90
10051;DHT22;5065;46.942;7.432;2022-10-16T04:11:01;15.30;99.90
10051;DHT22;5065;46.942;7.432;2022-10-16T04:13:29;15.40;99.90
10051;DHT22;5065;46.942;7.432;2022-10-16T04:15:56;15.40;99.90
10051;DHT22;5065;46.942;7.432;2022-10-16T04:18:23;15.40;99.90
10051;DHT22;5065;46.942;7.432;2022-10-16T04:20:52;15.40;99.90
10051;DHT22;5065;46.942;7.432;2022-10-16T04:23:20;15.40;99.90
10051;DHT22;5065;46.942;7.432;2022-10-16T04:25:48;15.40;99.90
10051;DHT22;5065;46.942;7.432;2022-10-16T04:28:17;15.40;99.90
10051;DHT22;5065;46.942;7.432;2022-10-16T04:30:44;15.40;99.90
10051;DHT22;5065;46.942;7.432;2022-10-16T04:33:11;15.30;99.90
10051;DHT22;5065;46.942;7.432;2022-10-16T04:35:38;15.30;99.90
10051;DHT22;5065;46.942;7.432;2022-10-16T04:38:05;15.30;99.90
10051;DHT22;5065;46.942;7.432;2022-10-16T04:40:32;15.30;99.90
10051;DHT22;5065;46.942;7.432;2022-10-16T04:43:02;15.30;99.90
10051;DHT22;5065;46.942;7.432;2022-10-16T04:45:31;15.20;99.90
10051;DHT22;5065;46.942;7.432;2022-10-16T04:47:58;15.20;99.90
10051;DHT22;5065;46.942;7.432;2022-10-16T04:50:26;15.20;99.90
10051;DHT22;5065;46.942;7.432;2022-10-16T04:52:53;15.20;99.90
10051;DHT22;5065;46.942;7.432;2022-10-16T04:55:20;15.20;99.90
10051;DHT22;5065;46.942;7.432;2022-10-16T04:57:47;15.20;99.90
10051;DHT22;5065;46.942;7.432;2022-10-16T05:00:15;15.20;99.90
10051;DHT22;5065;46.942;7.432;2022-10-16T05:02:43;15.20;99.90
10051;DHT22;5065;46.942;7.432;2022-10-16T05:05:11;15.20;99.90
10051;DHT22;5065;46.942;7.432;2022-10-16T05:07:38;15.20;99.90
10051;DHT22;5065;46.942;7.432;2022-10-16T05:10:05;15.10;99.90
10051;DHT22;5065;46.942;7.432;2022-10-16T05:12:33;15.20;99.90
10051;DHT22;5065;46.942;7.432;2022-10-16T05:15:00;15.20;99.90
10051;DHT22;5065;46.942;7.432;2022-10-16T05:17:27;15.10;99.90
10051;DHT22;5065;46.942;7.432;2022-10-16T05:19:56;15.20;99.90
10051;DHT22;5065;46.942;7.432;2022-10-16T05:22:23;15.20;99.90
10051;DHT22;5065;46.942;7.432;2022-10-16T05:24:50;15.10;99.90
10051;DHT22;5065;46.942;7.432;2022-10-16T05:27:17;15.10;99.90
10051;DHT22;5065;46.942;7.432;2022-10-16T05:29:45;15.20;99.90
10051;DHT22;5065;46.942;7.432;2022-10-16T05:32:13;15.10;99.90
10051;DHT22;5065;46.942;7.432;2022-10-16T05:34:40;15.20;99.90
10051;DHT22;5065;46.942;7.432;2022-10-16T05:37:09;15.20;99.90
10051;DHT22;5065;46.942;7.432;2022-10-16T05:39:37;15.10;99.90
10051;DHT22;5065;46.942;7.432;2022-10-16T05:42:04;15.10;99.90
10051;DHT22;5065;46.942;7.432;2022-10-16T05:44:32;15.20;99.90
10051;DHT22;5065;46.942;7.432;2022-10-16T05:46:59;15.10;99.90
10051;DHT22;5065;46.942;7.432;2022-10-16T05:49:26;15.10;99.90
10051;DHT22;5065;46.942;7.432;2022-10-16T05:51:53;15.00;99.90
10051;DHT22;5065;46.942;7.432;2022-10-16T05:54:22;15.00;99.90
10051;DHT22;5065;46.942;7.432;2022-10-16T05:56:49;15.00;99.90
10051;DHT22;5065;46.942;7.432;2022-10-16T05:59:16;15.00;99.90
10051;DHT22;5065;46.942;7.432;2022-10-16T06:01:43;14.90;99.90
10051;DHT22;5065;46.942;7.432;2022-10-16T06:04:10;14.90;99.90
10051;DHT22;5065;46.942;7.432;2022-10-16T06:06:37;14.90;99.90
10051;DHT22;5065;46.942;7.432;2022-10-16T06:09:05;14.90;99.90
10051;DHT22;5065;46.942;7.432;2022-10-16T06:11:33;15.00;99.90
10051;DHT22;5065;46.942;7.432;2022-10-16T06:14:02;15.00;99.90
10051;DHT22;5065;46.942;7.432;2022-10-16T06:16:33;14.90;99.90
10051;DHT22;5065;46.942;7.432;2022-10-16T06:19:00;14.90;99.90
10051;DHT22;5065;46.942;7.432;2022-10-16T06:21:28;15.00;99.90
10051;DHT22;5065;46.942;7.432;2022-10-16T06:23:57;14.90;99.90
10051;DHT22;5065;46.942;7.432;2022-10-16T06:26:26;14.90;99.90
10051;DHT22;5065;46.942;7.432;2022-10-16T06:28:56;14.90;99.90
10051;DHT22;5065;46.942;7.432;2022-10-16T06:31:23;15.00;99.90
10051;DHT22;5065;46.942;7.432;2022-10-16T06:33:54;15.00;99.90
10051;DHT22;5065;46.942;7.432;2022-10-16T06:36:22;15.00;99.90
10051;DHT22;5065;46.942;7.432;2022-10-16T06:38:49;15.00;99.90
10051;DHT22;5065;46.942;7.432;2022-10-16T06:41:18;15.10;99.90
10051;DHT22;5065;46.942;7.432;2022-10-16T06:43:46;15.10;99.90
10051;DHT22;5065;46.942;7.432;2022-10-16T06:46:16;15.10;99.90
10051;DHT22;5065;46.942;7.432;2022-10-16T06:48:43;15.20;99.90
10051;DHT22;5065;46.942;7.432;2022-10-16T06:51:12;15.20;99.90
10051;DHT22;5065;46.942;7.432;2022-10-16T06:53:42;15.20;99.90
10051;DHT22;5065;46.942;7.432;2022-10-16T06:56:10;15.30;99.90
10051;DHT22;5065;46.942;7.432;2022-10-16T06:58:38;15.30;99.90
10051;DHT22;5065;46.942;7.432;2022-10-16T07:01:06;15.30;99.90
10051;DHT22;5065;46.942;7.432;2022-10-16T07:03:39;15.40;99.90
10051;DHT22;5065;46.942;7.432;2022-10-16T07:06:08;15.40;99.90
10051;DHT22;5065;46.942;7.432;2022-10-16T07:08:37;15.40;99.90
10051;DHT22;5065;46.942;7.432;2022-10-16T07:11:07;15.40;99.90
10051;DHT22;5065;46.942;7.432;2022-10-16T07:13:34;15.50;99.90
10051;DHT22;5065;46.942;7.432;2022-10-16T07:16:04;15.50;99.90
10051;DHT22;5065;46.942;7.432;2022-10-16T07:18:32;15.50;99.90
10051;DHT22;5065;46.942;7.432;2022-10-16T07:21:05;15.50;99.90
10051;DHT22;5065;46.942;7.432;2022-10-16T07:23:33;15.50;99.90
10051;DHT22;5065;46.942;7.432;2022-10-16T07:26:00;15.50;99.90
10051;DHT22;5065;46.942;7.432;2022-10-16T07:28:28;15.50;99.90
10051;DHT22;5065;46.942;7.432;2022-10-16T07:30:55;15.60;99.90
10051;DHT22;5065;46.942;7.432;2022-10-16T07:33:26;15.60;99.90
10051;DHT22;5065;46.942;7.432;2022-10-16T07:35:55;15.60;99.90
10051;DHT22;5065;46.942;7.432;2022-10-16T07:38:23;15.60;99.90
10051;DHT22;5065;46.942;7.432;2022-10-16T07:40:56;15.70;99.90
10051;DHT22;5065;46.942;7.432;2022-10-16T07:43:24;15.70;99.90
10051;DHT22;5065;46.942;7.432;2022-10-16T07:45:52;15.70;99.90
10051;DHT22;5065;46.942;7.432;2022-10-16T07:48:21;15.70;99.90
10051;DHT22;5065;46.942;7.432;2022-10-16T07:50:49;15.70;99.90
10051;DHT22;5065;46.942;7.432;2022-10-16T07:53:16;15.70;99.90
10051;DHT22;5065;46.942;7.432;2022-10-16T07:55:45;15.70;99.90
10051;DHT22;5065;46.942;7.432;2022-10-16T07:58:12;15.70;99.90
10051;DHT22;5065;46.942;7.432;2022-10-16T08:00:39;15.70;99.90
10051;DHT22;5065;46.942;7.432;2022-10-16T08:03:07;15.70;99.90
10051;DHT22;5065;46.942;7.432;2022-10-16T08:05:35;15.70;99.90
10051;DHT22;5065;46.942;7.432;2022-10-16T08:08:02;15.70;99.90
10051;DHT22;5065;46.942;7.432;2022-10-16T08:10:29;15.70;99.90
10051;DHT22;5065;46.942;7.432;2022-10-16T08:12:58;15.70;99.90
10051;DHT22;5065;46.942;7.432;2022-10-16T08:15:25;15.60;99.90
10051;DHT22;5065;46.942;7.432;2022-10-16T08:18:00;15.60;99.90
10051;DHT22;5065;46.942;7.432;2022-10-16T08:20:29;15.60;99.90
10051;DHT22;5065;46.942;7.432;2022-10-16T08:22:57;15.60;99.90
10051;DHT22;5065;46.942;7.432;2022-10-16T08:25:25;15.60;99.90
10051;DHT22;5065;46.942;7.432;2022-10-16T08:27:53;15.60;99.90
10051;DHT22;5065;46.942;7.432;2022-10-16T08:30:23;15.60;99.90
10051;DHT22;5065;46.942;7.432;2022-10-16T08:32:51;15.60;99.90
10051;DHT22;5065;46.942;7.432;2022-10-16T08:35:18;15.60;99.90
10051;DHT22;5065;46.942;7.432;2022-10-16T08:37:45;15.60;99.90
10051;DHT22;5065;46.942;7.432;2022-10-16T08:40:17;15.60;99.90
10051;DHT22;5065;46.942;7.432;2022-10-16T08:43:18;15.80;99.90
10051;DHT22;5065;46.942;7.432;2022-10-16T08:46:04;16.10;99.90
10051;DHT22;5065;46.942;7.432;2022-10-16T08:48:43;16.40;99.90
10051;DHT22;5065;46.942;7.432;2022-10-16T08:51:19;16.60;99.90
10051;DHT22;5065;46.942;7.432;2022-10-16T08:53:52;16.80;99.90
10051;DHT22;5065;46.942;7.432;2022-10-16T08:56:20;17.00;99.90
10051;DHT22;5065;46.942;7.432;2022-10-16T08:58:48;17.20;99.90
10051;DHT22;5065;46.942;7.432;2022-10-16T09:01:20;17.30;99.90
10051;DHT22;5065;46.942;7.432;2022-10-16T09:04:03;17.50;99.90
10051;DHT22;5065;46.942;7.432;2022-10-16T09:06:44;17.60;99.90
10051;DHT22;5065;46.942;7.432;2022-10-16T09:09:46;17.70;99.90
10051;DHT22;5065;46.942;7.432;2022-10-16T09:12:21;17.90;99.90
10051;DHT22;5065;46.942;7.432;2022-10-16T09:14:59;17.90;99.90
10051;DHT22;5065;46.942;7.432;2022-10-16T09:17:45;18.00;99.90
10051;DHT22;5065;46.942;7.432;2022-10-16T09:20:26;18.00;99.90
10051;DHT22;5065;46.942;7.432;2022-10-16T09:23:08;18.10;99.90
10051;DHT22;5065;46.942;7.432;2022-10-16T09:25:39;18.20;99.90
10051;DHT22;5065;46.942;7.432;2022-10-16T09:28:08;18.20;99.90
10051;DHT22;5065;46.942;7.432;2022-10-16T09:30:37;18.30;99.90
10051;DHT22;5065;46.942;7.432;2022-10-16T09:33:07;18.30;99.90
10051;DHT22;5065;46.942;7.432;2022-10-16T09:35:38;18.40;99.90
10051;DHT22;5065;46.942;7.432;2022-10-16T09:38:06;18.40;99.90
10051;DHT22;5065;46.942;7.432;2022-10-16T09:40:35;18.40;99.90
10051;DHT22;5065;46.942;7.432;2022-10-16T09:43:12;18.40;99.90
10051;DHT22;5065;46.942;7.432;2022-10-16T09:45:57;18.40;99.90
10051;DHT22;5065;46.942;7.432;2022-10-16T09:48:28;18.40;99.90
10051;DHT22;5065;46.942;7.432;2022-10-16T09:50:59;18.40;99.90
10051;DHT22;5065;46.942;7.432;2022-10-16T09:53:41;18.40;99.90
10051;DHT22;5065;46.942;7.432;2022-10-16T09:56:10;18.40;99.90
10051;DHT22;5065;46.942;7.432;2022-10-16T09:58:42;18.50;99.90
10051;DHT22;5065;46.942;7.432;2022-10-16T10:01:14;18.50;99.90
10051;DHT22;5065;46.942;7.432;2022-10-16T10:03:44;18.60;99.90
10051;DHT22;5065;46.942;7.432;2022-10-16T10:06:21;18.80;99.90
10051;DHT22;5065;46.942;7.432;2022-10-16T10:09:17;18.80;99.90
10051;DHT22;5065;46.942;7.432;2022-10-16T10:11:48;19.00;99.90
10051;DHT22;5065;46.942;7.432;2022-10-16T10:14:25;19.10;99.90
10051;DHT22;5065;46.942;7.432;2022-10-16T10:17:08;19.20;99.90
10051;DHT22;5065;46.942;7.432;2022-10-16T10:19:52;19.30;99.90
10051;DHT22;5065;46.942;7.432;2022-10-16T10:22:27;19.50;99.90
10051;DHT22;5065;46.942;7.432;2022-10-16T10:25:25;19.50;99.90
10051;DHT22;5065;46.942;7.432;2022-10-16T10:28:10;19.60;99.90
10051;DHT22;5065;46.942;7.432;2022-10-16T10:30:48;19.60;99.90
10051;DHT22;5065;46.942;7.432;2022-10-16T10:33:26;19.70;99.90
10051;DHT22;5065;46.942;7.432;2022-10-16T10:36:03;19.80;99.90
10051;DHT22;5065;46.942;7.432;2022-10-16T10:38:43;20.00;99.90
10051;DHT22;5065;46.942;7.432;2022-10-16T10:44:16;20.20;99.90
10051;DHT22;5065;46.942;7.432;2022-10-16T10:46:51;20.20;99.90
10051;DHT22;5065;46.942;7.432;2022-10-16T10:49:34;20.20;99.90
10051;DHT22;5065;46.942;7.432;2022-10-16T10:52:20;20.30;99.90
10051;DHT22;5065;46.942;7.432;2022-10-16T10:54:56;20.40;99.90
10051;DHT22;5065;46.942;7.432;2022-10-16T10:57:29;20.40;99.90
10051;DHT22;5065;46.942;7.432;2022-10-16T11:00:07;20.50;99.90
10051;DHT22;5065;46.942;7.432;2022-10-16T11:02:41;20.60;99.90
10051;DHT22;5065;46.942;7.432;2022-10-16T11:05:37;20.70;99.90
10051;DHT22;5065;46.942;7.432;2022-10-16T11:08:13;20.70;99.90
10051;DHT22;5065;46.942;7.432;2022-10-16T11:10:50;20.80;99.90
10051;DHT22;5065;46.942;7.432;2022-10-16T11:13:30;20.90;99.90
10051;DHT22;5065;46.942;7.432;2022-10-16T11:16:00;21.00;99.90
10051;DHT22;5065;46.942;7.432;2022-10-16T11:18:37;21.00;99.90
10051;DHT22;5065;46.942;7.432;2022-10-16T11:21:09;21.00;99.90
10051;DHT22;5065;46.942;7.432;2022-10-16T11:23:44;21.00;99.90
10051;DHT22;5065;46.942;7.432;2022-10-16T11:26:17;21.00;99.90
10051;DHT22;5065;46.942;7.432;2022-10-16T11:28:49;21.10;99.90
10051;DHT22;5065;46.942;7.432;2022-10-16T11:31:22;21.10;99.90
10051;DHT22;5065;46.942;7.432;2022-10-16T11:33:54;21.10;99.90
10051;DHT22;5065;46.942;7.432;2022-10-16T11:36:29;21.20;99.90
10051;DHT22;5065;46.942;7.432;2022-10-16T11:39:08;21.30;99.90
10051;DHT22;5065;46.942;7.432;2022-10-16T11:41:43;21.40;99.90
10051;DHT22;5065;46.942;7.432;2022-10-16T11:44:27;21.40;99.90
10051;DHT22;5065;46.942;7.432;2022-10-16T11:47:09;21.40;99.90
10051;DHT22;5065;46.942;7.432;2022-10-16T11:49:40;21.40;99.90
10051;DHT22;5065;46.942;7.432;2022-10-16T11:52:15;21.50;99.90
10051;DHT22;5065;46.942;7.432;2022-10-16T11:54:49;21.50;99.90
10051;DHT22;5065;46.942;7.432;2022-10-16T11:57:21;21.50;99.90
10051;DHT22;5065;46.942;7.432;2022-10-16T11:59:54;21.50;99.90
10051;DHT22;5065;46.942;7.432;2022-10-16T12:02:36;21.50;99.90
10051;DHT22;5065;46.942;7.432;2022-10-16T12:05:18;21.50;99.90
10051;DHT22;5065;46.942;7.432;2022-10-16T12:07:53;21.50;99.90
10051;DHT22;5065;46.942;7.432;2022-10-16T12:10:28;21.50;99.90
10051;DHT22;5065;46.942;7.432;2022-10-16T12:12:57;21.50;99.90
10051;DHT22;5065;46.942;7.432;2022-10-16T12:15:25;21.50;99.90
10051;DHT22;5065;46.942;7.432;2022-10-16T12:17:53;21.50;99.90
10051;DHT22;5065;46.942;7.432;2022-10-16T12:20:31;21.50;99.90
10051;DHT22;5065;46.942;7.432;2022-10-16T12:23:00;21.50;99.90
10051;DHT22;5065;46.942;7.432;2022-10-16T12:25:32;21.50;99.90
10051;DHT22;5065;46.942;7.432;2022-10-16T12:28:01;21.50;99.90
10051;DHT22;5065;46.942;7.432;2022-10-16T12:30:31;21.50;99.90
10051;DHT22;5065;46.942;7.432;2022-10-16T12:33:02;21.40;99.90
10051;DHT22;5065;46.942;7.432;2022-10-16T12:35:33;21.40;99.90
10051;DHT22;5065;46.942;7.432;2022-10-16T12:38:12;21.40;99.90
10051;DHT22;5065;46.942;7.432;2022-10-16T12:40:44;21.40;99.90
10051;DHT22;5065;46.942;7.432;2022-10-16T12:43:37;21.30;99.90
10051;DHT22;5065;46.942;7.432;2022-10-16T12:46:20;21.30;99.90
10051;DHT22;5065;46.942;7.432;2022-10-16T12:48:48;21.30;99.90
10051;DHT22;5065;46.942;7.432;2022-10-16T12:51:24;21.30;99.90
10051;DHT22;5065;46.942;7.432;2022-10-16T12:54:02;21.40;99.90
10051;DHT22;5065;46.942;7.432;2022-10-16T12:56:41;21.30;99.90
10051;DHT22;5065;46.942;7.432;2022-10-16T12:59:19;21.30;99.90
10051;DHT22;5065;46.942;7.432;2022-10-16T13:02:24;21.30;99.90
10051;DHT22;5065;46.942;7.432;2022-10-16T13:05:13;21.30;99.90
10051;DHT22;5065;46.942;7.432;2022-10-16T13:07:53;21.30;99.90
10051;DHT22;5065;46.942;7.432;2022-10-16T13:10:27;21.30;99.90
10051;DHT22;5065;46.942;7.432;2022-10-16T13:13:15;21.30;99.90
10051;DHT22;5065;46.942;7.432;2022-10-16T13:16:02;21.30;99.90
10051;DHT22;5065;46.942;7.432;2022-10-16T13:18:38;21.30;99.90
10051;DHT22;5065;46.942;7.432;2022-10-16T13:21:24;21.30;99.90
10051;DHT22;5065;46.942;7.432;2022-10-16T13:23:56;21.30;99.90
10051;DHT22;5065;46.942;7.432;2022-10-16T13:26:35;21.30;99.90
10051;DHT22;5065;46.942;7.432;2022-10-16T13:29:06;21.30;99.90
10051;DHT22;5065;46.942;7.432;2022-10-16T13:31:33;21.30;99.90
10051;DHT22;5065;46.942;7.432;2022-10-16T13:34:03;21.30;99.90
10051;DHT22;5065;46.942;7.432;2022-10-16T13:36:42;21.30;99.90
10051;DHT22;5065;46.942;7.432;2022-10-16T13:39:14;21.30;99.90
10051;DHT22;5065;46.942;7.432;2022-10-16T13:41:43;21.30;99.90
10051;DHT22;5065;46.942;7.432;2022-10-16T13:44:19;21.30;99.90
10051;DHT22;5065;46.942;7.432;2022-10-16T13:46:57;21.30;99.90
10051;DHT22;5065;46.942;7.432;2022-10-16T13:49:25;21.30;99.90
10051;DHT22;5065;46.942;7.432;2022-10-16T13:51:56;21.30;99.90
10051;DHT22;5065;46.942;7.432;2022-10-16T13:54:23;21.30;99.90
10051;DHT22;5065;46.942;7.432;2022-10-16T13:56:51;21.30;99.90
10051;DHT22;5065;46.942;7.432;2022-10-16T13:59:32;21.30;99.90
10051;DHT22;5065;46.942;7.432;2022-10-16T14:02:05;21.30;99.90
10051;DHT22;5065;46.942;7.432;2022-10-16T14:04:33;21.40;99.90
10051;DHT22;5065;46.942;7.432;2022-10-16T14:07:00;21.30;99.90
10051;DHT22;5065;46.942;7.432;2022-10-16T14:09:29;21.30;99.90
10051;DHT22;5065;46.942;7.432;2022-10-16T14:11:59;21.30;99.90
10051;DHT22;5065;46.942;7.432;2022-10-16T14:14:35;21.30;99.90
10051;DHT22;5065;46.942;7.432;2022-10-16T14:17:03;21.30;99.90
10051;DHT22;5065;46.942;7.432;2022-10-16T14:19:31;21.30;99.90
10051;DHT22;5065;46.942;7.432;2022-10-16T14:21:59;21.30;99.90
10051;DHT22;5065;46.942;7.432;2022-10-16T14:24:32;21.30;99.90
10051;DHT22;5065;46.942;7.432;2022-10-16T14:27:01;21.30;99.90
10051;DHT22;5065;46.942;7.432;2022-10-16T14:29:31;21.30;99.90
10051;DHT22;5065;46.942;7.432;2022-10-16T14:31:59;21.30;99.90
10051;DHT22;5065;46.942;7.432;2022-10-16T14:34:29;21.30;99.90
10051;DHT22;5065;46.942;7.432;2022-10-16T14:37:00;21.30;99.90
10051;DHT22;5065;46.942;7.432;2022-10-16T14:39:33;21.30;99.90
10051;DHT22;5065;46.942;7.432;2022-10-16T14:42:00;21.30;99.90
10051;DHT22;5065;46.942;7.432;2022-10-16T14:44:32;21.30;99.90
10051;DHT22;5065;46.942;7.432;2022-10-16T14:47:08;21.30;99.90
10051;DHT22;5065;46.942;7.432;2022-10-16T14:49:36;21.30;99.90
10051;DHT22;5065;46.942;7.432;2022-10-16T14:52:08;21.30;99.90
10051;DHT22;5065;46.942;7.432;2022-10-16T14:54:35;21.30;99.90
10051;DHT22;5065;46.942;7.432;2022-10-16T14:57:02;21.30;99.90
10051;DHT22;5065;46.942;7.432;2022-10-16T14:59:33;21.30;99.90
10051;DHT22;5065;46.942;7.432;2022-10-16T15:02:14;21.30;99.90
10051;DHT22;5065;46.942;7.432;2022-10-16T15:04:43;21.30;99.90
10051;DHT22;5065;46.942;7.432;2022-10-16T15:07:10;21.30;99.90
10051;DHT22;5065;46.942;7.432;2022-10-16T15:09:37;21.20;99.90
10051;DHT22;5065;46.942;7.432;2022-10-16T15:12:05;21.30;99.90
10051;DHT22;5065;46.942;7.432;2022-10-16T15:14:33;21.30;99.90
10051;DHT22;5065;46.942;7.432;2022-10-16T15:17:01;21.30;99.90
10051;DHT22;5065;46.942;7.432;2022-10-16T15:19:28;21.30;99.90
10051;DHT22;5065;46.942;7.432;2022-10-16T15:21:55;21.30;99.90
10051;DHT22;5065;46.942;7.432;2022-10-16T15:24:22;21.30;99.90
10051;DHT22;5065;46.942;7.432;2022-10-16T15:26:50;21.20;99.90
10051;DHT22;5065;46.942;7.432;2022-10-16T15:29:17;21.20;99.90
10051;DHT22;5065;46.942;7.432;2022-10-16T15:31:45;21.20;99.90
10051;DHT22;5065;46.942;7.432;2022-10-16T15:34:13;21.20;99.90
10051;DHT22;5065;46.942;7.432;2022-10-16T15:36:40;21.20;99.90
10051;DHT22;5065;46.942;7.432;2022-10-16T15:39:13;21.20;99.90
10051;DHT22;5065;46.942;7.432;2022-10-16T15:41:40;21.20;99.90
10051;DHT22;5065;46.942;7.432;2022-10-16T15:44:08;21.10;99.90
10051;DHT22;5065;46.942;7.432;2022-10-16T15:46:35;21.10;99.90
10051;DHT22;5065;46.942;7.432;2022-10-16T15:49:04;21.20;99.90
10051;DHT22;5065;46.942;7.432;2022-10-16T15:51:32;21.20;99.90
10051;DHT22;5065;46.942;7.432;2022-10-16T15:53:59;21.20;99.90
10051;DHT22;5065;46.942;7.432;2022-10-16T15:56:28;21.20;99.90
10051;DHT22;5065;46.942;7.432;2022-10-16T15:58:58;21.20;99.90
10051;DHT22;5065;46.942;7.432;2022-10-16T16:01:25;21.20;99.90
10051;DHT22;5065;46.942;7.432;2022-10-16T16:03:54;21.30;99.90
10051;DHT22;5065;46.942;7.432;2022-10-16T16:06:23;21.30;99.90
10051;DHT22;5065;46.942;7.432;2022-10-16T16:08:51;21.30;99.90
10051;DHT22;5065;46.942;7.432;2022-10-16T16:11:19;21.20;99.90
10051;DHT22;5065;46.942;7.432;2022-10-16T16:13:46;21.20;99.90